Time;durP1;ratioP1;P1;durP2;ratioP2;P2;SDS_P1;SDS_P2;PMS_P1;PMS_P2;Temp;Humidity;BMP_temperature;BMP_pressure;BME280_temperature;BME280_humidity;BME280_pressure;Samples;Min_cycle;Max_cycle;Signal;HPM_P1;HPM_P2
2023/10/02 00:01:47;;;;;;;0.10;0.10;;;;;;;15.22;100.00;101895.78;5113021;28;20046;-45
2023/10/02 00:04:16;;;;;;;0.10;0.10;;;;;;;15.22;100.00;101890.59;5112832;28;20463;-42
2023/10/02 00:06:42;;;;;;;0.10;0.10;;;;;;;15.20;100.00;101892.25;5113373;28;20031;-41
2023/10/02 00:09:07;;;;;;;0.10;0.10;;;;;;;15.21;100.00;101896.63;5112185;28;20031;-41
2023/10/02 00:11:36;;;;;;;0.10;0.10;;;;;;;15.18;100.00;101883.53;5113396;28;20043;-42
2023/10/02 00:14:18;;;;;;;0.10;0.10;;;;;;;15.15;100.00;101891.25;5120199;28;20032;-43
2023/10/02 00:17:03;;;;;;;0.10;0.10;;;;;;;15.02;100.00;101892.63;5119355;28;20064;-45
2023/10/02 00:19:38;;;;;;;0.10;0.10;;;;;;;15.07;100.00;101891.03;5119200;28;20036;-44
2023/10/02 00:25:22;;;;;;;0.10;0.10;;;;;;;15.07;100.00;101896.22;5017096;28;20034;-44
2023/10/02 00:27:50;;;;;;;0.10;0.10;;;;;;;15.11;100.00;101895.47;5101976;28;20043;-43
2023/10/02 00:30:19;;;;;;;0.10;0.10;;;;;;;15.10;100.00;101892.84;5118819;28;20142;-42
2023/10/02 00:32:46;;;;;;;0.10;0.10;;;;;;;15.09;100.00;101897.16;5120045;28;20024;-43
2023/10/02 00:35:12;;;;;;;0.10;0.10;;;;;;;15.13;100.00;101899.00;5119622;28;20083;-41
2023/10/02 00:37:46;;;;;;;0.10;0.10;;;;;;;15.12;100.00;101894.63;5119132;28;20104;-42
2023/10/02 00:40:20;;;;;;;0.10;0.10;;;;;;;15.08;100.00;101903.19;5119581;28;20032;-41
2023/10/02 00:42:55;;;;;;;0.10;0.10;;;;;;;15.01;100.00;101890.84;5120065;28;20028;-43
2023/10/02 00:45:22;;;;;;;0.10;0.10;;;;;;;14.99;100.00;101892.56;5118869;28;20407;-44
2023/10/02 00:47:48;;;;;;;0.10;0.10;;;;;;;15.03;100.00;101893.50;5119673;28;20019;-43
2023/10/02 00:50:18;;;;;;;0.10;0.10;;;;;;;14.86;100.00;101880.94;5119487;28;20035;-43
2023/10/02 00:53:02;;;;;;;0.10;0.10;;;;;;;14.95;100.00;101882.88;5118945;28;20080;-41
2023/10/02 00:55:32;;;;;;;0.10;0.10;;;;;;;14.90;100.00;101880.19;5119573;28;20039;-42
2023/10/02 00:57:59;;;;;;;0.10;0.10;;;;;;;14.81;100.00;101877.34;5118660;28;20051;-42
2023/10/02 01:00:35;;;;;;;0.10;0.10;;;;;;;14.78;100.00;101877.22;5119262;28;20015;-43
2023/10/02 01:03:08;;;;;;;0.10;0.10;;;;;;;14.71;100.00;101870.97;5119836;28;20024;-44
2023/10/02 01:05:41;;;;;;;0.10;0.10;;;;;;;14.72;100.00;101870.16;5118499;28;20023;-44
2023/10/02 01:08:46;;;;;;;0.10;0.10;;;;;;;14.68;100.00;101878.69;5119715;28;20059;-43
2023/10/02 01:11:15;;;;;;;0.10;0.10;;;;;;;14.59;100.00;101870.56;5119154;28;20467;-41
2023/10/02 01:13:42;;;;;;;0.10;0.10;;;;;;;14.55;100.00;101869.63;5118521;28;20462;-41
2023/10/02 01:16:09;;;;;;;0.10;0.10;;;;;;;14.52;100.00;101869.53;5119391;28;20020;-41
2023/10/02 01:18:39;;;;;;;0.10;0.10;;;;;;;14.40;100.00;101870.03;5119393;28;20378;-41
2023/10/02 01:21:12;;;;;;;0.10;0.10;;;;;;;14.33;100.00;101868.09;5118747;28;20062;-43
2023/10/02 01:24:06;;;;;;;0.10;0.10;;;;;;;14.27;100.00;101871.38;5117760;28;20024;-46
2023/10/02 01:26:34;;;;;;;0.10;0.10;;;;;;;14.23;100.00;101872.13;5114993;28;20388;-43
2023/10/02 01:29:03;;;;;;;0.10;0.10;;;;;;;14.13;100.00;101868.34;5116254;28;20062;-43
2023/10/02 01:31:35;;;;;;;0.10;0.10;;;;;;;14.12;100.00;101869.19;5115992;28;20023;-44
2023/10/02 01:34:04;;;;;;;0.10;0.10;;;;;;;14.14;100.00;101870.13;5115480;28;20024;-45
2023/10/02 01:36:32;;;;;;;0.13;0.13;;;;;;;14.14;100.00;101871.84;5115784;28;20024;-44
2023/10/02 01:39:10;;;;;;;;;;;;;;;14.20;100.00;101868.56;5116524;28;20023;-42
2023/10/02 01:41:35;;;;;;;;;;;;;;;14.19;100.00;101869.38;5115426;28;19908;-45
2023/10/02 01:44:03;;;;;;;;;;;;;;;14.15;100.00;101869.28;5116394;28;19957;-45
2023/10/02 01:46:30;;;;;;;;;;;;;;;14.12;100.00;101869.19;5115930;28;19990;-44
2023/10/02 01:48:55;;;;;;;;;;;;;;;14.09;100.00;101863.91;5115339;28;19964;-41
2023/10/02 01:51:27;;;;;;;;;;;;;;;14.08;100.00;101867.31;5115769;28;19911;-46
2023/10/02 01:53:56;;;;;;;;;;;;;;;14.05;100.00;101864.66;5116261;28;19915;-43
2023/10/02 01:56:31;;;;;;;;;;;;;;;14.04;100.00;101865.47;5115187;28;19922;-45
2023/10/02 01:59:09;;;;;;;;;;;;;;;14.02;100.00;101861.97;5075379;28;20389;-46
2023/10/02 02:01:52;;;;;;;;;;;;;;;13.99;100.00;101861.84;5074383;28;19962;-44
2023/10/02 02:04:23;;;;;;;;;;;;;;;13.95;100.00;101862.59;5075246;28;19912;-42
2023/10/02 02:06:51;;;;;;;;;;;;;;;13.92;100.00;101867.69;5075370;28;19912;-45
2023/10/02 02:09:23;;;;;;;;;;;;;;;13.89;100.00;101867.56;5073876;28;20275;-44
2023/10/02 02:12:10;;;;;;;;;;;;;;;13.85;100.00;101866.59;5075135;28;19912;-45
2023/10/02 02:14:41;;;;;;;;;;;;;;;13.80;100.00;101861.28;5075411;28;19997;-46
2023/10/02 02:17:10;;;;;;;;;;;;;;;13.77;100.00;101861.16;5074429;28;19913;-45
2023/10/02 02:19:35;;;;;;;;;;;;;;;13.74;100.00;101866.25;5074851;28;19913;-45
2023/10/02 02:22:02;;;;;;;;;;;;;;;13.70;100.00;101858.31;5075051;28;20284;-44
2023/10/02 02:24:34;;;;;;;;;;;;;;;13.66;100.00;101854.78;5073993;28;19918;-44
2023/10/02 02:27:04;;;;;;;;;;;;;;;13.61;100.00;101858.91;5074893;28;20363;-44
2023/10/02 02:29:29;;;;;;;;;;;;;;;13.60;100.00;101854.56;5073567;28;20359;-43
2023/10/02 02:31:54;;;;;;;;;;;;;;;13.57;100.00;101852.75;5074704;28;19958;-43
2023/10/02 02:34:22;;;;;;;;;;;;;;;13.55;100.00;101858.72;5074469;28;19912;-44
2023/10/02 02:36:49;;;;;;;;;;;;;;;13.52;100.00;101866.34;5073718;28;19966;-45
2023/10/02 02:39:17;;;;;;;;;;;;;;;13.47;100.00;101861.91;5074227;28;19999;-45
2023/10/02 02:41:44;;;;;;;;;;;;;;;13.44;100.00;101854.03;5074897;28;19912;-43
2023/10/02 02:46:54;;;;;;;;;;;;;;;13.44;100.00;101851.47;5074799;28;19944;-45
2023/10/02 02:49:19;;;;;;;;;;;;;;;13.40;100.00;101844.41;5074057;28;19912;-44
2023/10/02 02:51:48;;;;;;;;;;;;;;;13.40;100.00;101849.59;5073490;28;19913;-41
2023/10/02 02:54:13;;;;;;;;;;;;;;;13.37;100.00;101840.84;5073975;28;20359;-42
2023/10/02 02:56:38;;;;;;;;;;;;;;;13.34;100.00;101846.75;5077299;28;19919;-43
2023/10/02 02:59:04;;;;;;;;;;;;;;;13.33;100.00;101842.41;5114341;28;19918;-45
2023/10/02 03:01:29;;;;;;;;;;;;;;;13.33;100.00;101842.41;5114335;28;20278;-42
2023/10/02 03:03:56;;;;;;;;;;;;;;;13.32;100.00;101843.22;5114689;28;19919;-44
2023/10/02 03:06:24;;;;;;;;;;;;;;;13.30;100.00;101840.59;5113564;28;19939;-42
2023/10/02 03:08:52;;;;;;;;;;;;;;;13.28;100.00;101837.06;5114528;28;19964;-43
2023/10/02 03:11:19;;;;;;;;;;;;;;;13.27;100.00;101839.59;5114469;28;19912;-43
2023/10/02 03:13:45;;;;;;;;;;;;;;;13.25;100.00;101830.91;5113974;28;19965;-46
2023/10/02 03:16:18;;;;;;;;;;;;;;;13.22;100.00;101823.94;5114645;28;19912;-42
2023/10/02 03:18:44;;;;;;;;;;;;;;;13.20;100.00;101829.88;5113611;28;19965;-44
2023/10/02 03:21:16;;;;;;;;;;;;;;;13.17;100.00;101821.16;5114328;28;19912;-44
2023/10/02 03:23:47;;;;;;;;;;;;;;;13.16;100.00;101818.53;5114531;28;19920;-42
2023/10/02 03:26:26;;;;;;;;;;;;;;;13.14;100.00;101821.06;5113298;28;19916;-44
2023/10/02 03:29:00;;;;;;;;;;;;;;;13.14;100.00;101817.59;5114247;28;19912;-46
2023/10/02 03:31:34;;;;;;;;;;;;;;;13.15;100.00;101814.16;5113910;28;19911;-45
2023/10/02 03:34:00;;;;;;;;;;;;;;;13.18;100.00;101817.75;5113620;28;20019;-45
2023/10/02 03:36:27;;;;;;;;;;;;;;;13.20;100.00;101820.38;5114063;28;19918;-42
2023/10/02 03:38:54;;;;;;;;;;;;;;;13.21;100.00;101816.97;5114231;28;19919;-44
2023/10/02 03:41:20;;;;;;;;;;;;;;;13.20;100.00;101820.38;5112933;28;20386;-45
2023/10/02 03:43:46;;;;;;;;;;;;;;;13.18;100.00;101812.56;5114004;28;19908;-45
2023/10/02 03:46:22;;;;;;;;;;;;;;;13.19;100.00;101821.22;5113789;28;19957;-42
2023/10/02 03:48:51;;;;;;;;;;;;;;;13.18;100.00;101816.84;5112971;28;19912;-45
2023/10/02 03:51:35;;;;;;;;;;;;;;;13.18;100.00;101825.53;5113637;28;19943;-44
2023/10/02 03:54:17;;;;;;;;;;;;;;;13.21;100.00;101826.44;5113126;28;19964;-41
2023/10/02 03:56:47;;;;;;;;;;;;;;;13.22;100.00;101817.84;5113937;28;19915;-45
2023/10/02 03:59:12;;;;;;;;;;;;;;;13.21;100.00;101824.75;5113570;28;20290;-45
2023/10/02 04:01:40;;;;;;;;;;;;;;;13.21;100.00;101821.25;5113157;28;19911;-42
2023/10/02 04:04:19;;;;;;;;;;;;;;;13.21;100.00;101819.56;5113948;28;19912;-45
2023/10/02 04:06:45;;;;;;;;;;;;;;;13.23;100.00;101819.63;5113755;28;19939;-44
2023/10/02 04:11:44;;;;;;;;;;;;;;;13.24;100.00;101822.25;5114003;28;20314;-45
2023/10/02 04:14:19;;;;;;;;;;;;;;;13.24;100.00;101826.56;5113720;28;19935;-43
2023/10/02 04:16:49;;;;;;;;;;;;;;;13.25;100.00;101813.66;5112846;28;19912;-44
2023/10/02 04:19:23;;;;;;;;;;;;;;;13.26;100.00;101817.13;5113307;28;19918;-46
2023/10/02 04:21:51;;;;;;;;;;;;;;;13.26;100.00;101814.53;5113804;28;19911;-42
2023/10/02 04:24:23;;;;;;;;;;;;;;;13.29;100.00;101817.25;5112730;28;20355;-46
2023/10/02 04:26:53;;;;;;;;;;;;;;;13.32;100.00;101814.75;5113666;28;20002;-47
2023/10/02 04:34:50;;;;;;;;;;;;;;;13.33;100.00;101816.50;5050826;28;19912;-42
2023/10/02 04:37:26;;;;;;;;;;;;;;;13.36;100.00;101808.84;5099085;28;19912;-45
2023/10/02 04:39:54;;;;;;;;;;;;;;;13.41;100.00;101809.91;5113488;28;20010;-46
2023/10/02 04:42:21;;;;;;;;;;;;;;;13.48;100.00;101801.53;5113019;28;19930;-46
2023/10/02 04:44:48;;;;;;;;;;;;;;;13.55;100.00;101801.72;5113018;28;20006;-43
2023/10/02 04:47:17;;;;;;;;;;;;;;;13.58;100.00;101813.06;5112903;28;19919;-41
2023/10/02 04:52:53;;;;;;;;;;;;;;;13.62;100.00;101819.22;5113188;28;19918;-45
2023/10/02 04:55:12;;;;;;;;;;;;;;;13.68;100.00;101805.59;5113046;28;20001;-45
2023/10/02 04:57:37;;;;;;;;;;;;;;;13.71;100.00;101809.16;5112586;28;20386;-45
2023/10/02 05:00:19;;;;;;;;;;;;;;;13.76;100.00;101804.13;5115508;28;19975;-45
2023/10/02 05:02:47;;;;;;;;;;;;;;;13.80;100.00;101805.97;5117041;28;20381;-45
2023/10/02 05:05:14;;;;;;;;;;;;;;;13.81;100.00;101802.56;5116097;28;19923;-43
2023/10/02 05:07:41;;;;;;;;;;;;;;;13.83;100.00;101808.69;5117228;28;19908;-45
2023/10/02 05:10:11;;;;;;;;;;;;;;;13.83;100.00;101806.09;5116789;28;20385;-45
2023/10/02 05:12:37;;;;;;;;;;;;;;;13.83;100.00;101804.34;5116229;28;19919;-44
2023/10/02 05:15:07;;;;;;;;;;;;;;;13.81;100.00;101800.84;5116828;28;19961;-44
2023/10/02 05:17:41;;;;;;;;;;;;;;;13.79;100.00;101802.50;5116456;28;20366;-44
2023/10/02 05:20:11;;;;;;;;;;;;;;;13.79;100.00;101802.50;5116191;28;19911;-44
2023/10/02 05:22:37;;;;;;;;;;;;;;;13.79;100.00;101810.28;5116981;28;19996;-44
2023/10/02 05:25:07;;;;;;;;;;;;;;;13.79;100.00;101812.00;5116761;28;19981;-43
2023/10/02 05:27:33;;;;;;;;;;;;;;;13.77;100.00;101814.53;5115455;28;20363;-45
2023/10/02 05:29:59;;;;;;;;;;;;;;;13.77;100.00;101819.69;5116306;28;20369;-43
2023/10/02 05:32:31;;;;;;;;;;;;;;;13.77;100.00;101818.84;5115182;28;19912;-47
2023/10/02 05:37:40;;;;;;;;;;;;;;;13.75;100.00;101818.78;5116650;28;19918;-42
2023/10/02 05:50:53;;;;;;;;;;;;;;;13.64;100.00;101823.59;5116110;28;20317;-44
2023/10/02 05:53:19;;;;;;;;;;;;;;;13.64;100.00;101827.94;5115572;28;19998;-43
2023/10/02 05:55:57;;;;;;;;;;;;;;;13.63;100.00;101831.34;5116152;28;20393;-43
2023/10/02 05:58:31;;;;;;;;;;;;;;;13.62;100.00;101835.66;5115641;28;19916;-44
2023/10/02 06:01:06;;;;;;;;;;;;;;;13.65;100.00;101834.88;5115175;28;19912;-44
2023/10/02 06:03:37;;;;;;;;;;;;;;;13.66;100.00;101831.47;5115608;28;20018;-44
2023/10/02 06:06:18;;;;;;;;;;;;;;;13.67;100.00;101833.19;5116043;28;19911;-42
2023/10/02 06:08:49;;;;;;;;;;;;;;;13.66;100.00;101829.72;5115003;28;19923;-43
2023/10/02 06:11:27;;;;;;;;;;;;;;;13.68;100.00;101832.38;5114966;28;20002;-45
2023/10/02 06:13:54;;;;;;;;;;;;;;;13.69;100.00;101839.31;5115641;28;19911;-45
2023/10/02 06:16:22;;;;;;;;;;;;;;;13.74;100.00;101837.75;5114606;28;19994;-42
2023/10/02 06:19:00;;;;;;;;;;;;;;;13.79;100.00;101835.31;5115770;28;19948;-45
2023/10/02 06:21:25;;;;;;;;;;;;;;;13.85;100.00;101837.22;5114842;28;19998;-44
2023/10/02 06:23:52;;;;;;;;;;;;;;;13.92;100.00;101839.19;5114891;28;20029;-44
2023/10/02 06:26:17;;;;;;;;;;;;;;;13.97;100.00;101837.63;5115031;28;20344;-42
2023/10/02 06:28:47;;;;;;;;;;;;;;;14.00;100.00;101846.34;5114315;28;19919;-42
2023/10/02 06:31:15;;;;;;;;;;;;;;;14.06;100.00;101837.00;5115317;28;19921;-43
2023/10/02 06:33:40;;;;;;;;;;;;;;;14.10;100.00;101834.56;5115427;28;20003;-42
2023/10/02 06:36:08;;;;;;;;;;;;;;;14.13;100.00;101842.44;5114640;28;20007;-44
2023/10/02 06:38:36;;;;;;;;;;;;;;;14.19;100.00;101840.84;5114815;28;19907;-43
2023/10/02 06:41:09;;;;;;;;;;;;;;;14.23;100.00;101850.47;5115048;28;19919;-42
2023/10/02 06:43:35;;;;;;;;;;;;;;;14.28;100.00;101843.72;5113897;28;20329;-44
2023/10/02 06:46:16;;;;;;;;;;;;;;;14.32;100.00;101846.47;5115222;28;19907;-46
2023/10/02 06:48:45;;;;;;;;;;;;;;;14.37;100.00;101844.03;5114993;28;19912;-44
2023/10/02 06:51:13;;;;;;;;;;;;;;;14.43;100.00;101844.19;5114058;28;19972;-43
2023/10/02 06:53:40;;;;;;;;;;;;;;;14.49;100.00;101849.56;5114880;28;19911;-46
2023/10/02 06:56:11;;;;;;;;;;;;;;;14.56;100.00;101844.56;5115033;28;20007;-43
2023/10/02 06:58:49;;;;;;;;;;;;;;;14.60;100.00;101852.50;5113890;28;20354;-44
2023/10/02 07:01:24;;;;;;;;;;;;;;;14.65;100.00;101847.44;5114341;28;19916;-47
2023/10/02 07:03:51;;;;;;;;;;;;;;;14.69;100.00;101846.69;5114014;28;19916;-45
2023/10/02 07:06:20;;;;;;;;;;;;;;;14.76;100.00;101843.44;5114532;28;19920;-44
2023/10/02 07:08:47;;;;;;;;;;;;;;;14.80;100.00;101832.31;5114637;28;19911;-41
2023/10/02 07:11:13;;;;;;;;;;;;;;;14.87;100.00;101835.94;5113440;28;19923;-43
2023/10/02 07:13:51;;;;;;;;;;;;;;;14.93;100.00;101836.13;5114570;28;19912;-44
2023/10/02 07:16:19;;;;;;;;;;;;;;;15.04;100.00;101833.84;5114200;28;19918;-44
2023/10/02 07:18:49;;;;;;;;;;;;;;;15.13;100.00;101838.38;5113813;28;19916;-43
2023/10/02 07:21:21;;;;;;;;;;;;;;;15.24;100.00;101841.28;5113976;28;19994;-46
2023/10/02 07:23:47;;;;;;;;;;;;;;;15.34;100.00;101832.88;5114104;28;19957;-45
2023/10/02 07:26:14;;;;;;;;;;;;;;;15.47;100.00;101839.28;5113252;28;19922;-42
2023/10/02 07:28:50;;;;;;;;;;;;;;;15.63;100.00;101835.34;5114194;28;19951;-45
2023/10/02 07:31:18;;;;;;;;;;;;;;;15.82;100.00;101841.03;5113813;28;20275;-47
2023/10/02 07:33:44;;;;;;;;;;;;;;;16.03;100.00;101840.63;5113350;28;19911;-46
2023/10/02 07:36:14;;;;;;;;;;;;;;;16.23;100.00;101851.47;5114215;28;19911;-45
2023/10/02 07:38:42;;;;;;;;;;;;;;;16.40;100.00;101847.53;5114154;28;19911;-45
2023/10/02 07:41:07;;;;;;;;;;;;;;;16.54;100.00;101847.84;5113248;28;19922;-45
2023/10/02 07:43:32;;;;;;;;;;;;;;;16.65;100.00;101853.25;5113674;28;19915;-43
2023/10/02 07:46:02;;;;;;;;;;;;;;;16.74;100.00;101856.03;5113394;28;19927;-44
2023/10/02 07:48:36;;;;;;;;;;;;;;;16.81;100.00;101848.34;5113711;28;19911;-45
2023/10/02 07:51:02;;;;;;;;;;;;;;;16.89;100.00;101849.41;5114075;28;19912;-45
2023/10/02 07:53:39;;;;;;;;;;;;;;;16.97;100.00;101847.84;5112708;28;20003;-44
2023/10/02 07:56:06;;;;;;;;;;;;;;;17.05;100.00;101848.84;5113790;28;19981;-43
2023/10/02 07:58:33;;;;;;;;;;;;;;;17.11;100.00;101851.59;5113242;28;20397;-44
2023/10/02 08:01:06;;;;;;;;;;;;;;;17.16;100.00;101850.78;5113141;28;19912;-43
2023/10/02 08:03:31;;;;;;;;;;;;;;;17.17;100.00;101843.03;5113501;28;19912;-45
2023/10/02 08:05:57;;;;;;;;;;;;;;;17.17;100.00;101849.94;5113826;28;19934;-46
2023/10/02 08:08:31;;;;;;;;;;;;;;;17.17;100.00;101848.22;5112524;28;20290;-44
2023/10/02 08:10:56;;;;;;;;;;;;;;;17.19;100.00;101843.03;5113999;28;19994;-43
2023/10/02 08:13:32;;;;;;;;;;;;;;;17.20;100.00;101847.41;5113521;28;19954;-45
2023/10/02 08:16:08;;;;;;;;;;;;;;;17.22;100.00;101854.41;5112963;28;19912;-42
2023/10/02 08:18:55;;;;;;;;;;;;;;;17.31;100.00;101861.47;5113447;28;19984;-42
2023/10/02 08:21:23;;;;;;;;;;;;;;;17.46;100.00;101860.88;5112596;28;19915;-45
2023/10/02 08:23:52;;;;;;;;;;;;;;;17.60;100.00;101853.31;5113730;28;19911;-43
2023/10/02 08:26:18;;;;;;;;;;;;;;;17.73;100.00;101855.25;5113312;28;19912;-43
2023/10/02 08:28:45;;;;;;;;;;;;;;;17.88;100.00;101853.72;5112689;28;19928;-45
2023/10/02 08:31:13;;;;;;;;;;;;;;;18.04;100.00;101860.97;5113289;28;20011;-42
2023/10/02 08:33:43;;;;;;;;;;;;;;;18.20;100.00;101863.81;5114992;28;20355;-42
2023/10/02 08:36:09;;;;;;;;;;;;;;;18.39;100.00;101868.41;5117076;28;20010;-46
2023/10/02 08:38:35;;;;;;;;;;;;;;;18.65;100.00;101862.66;5117378;28;19919;-44
2023/10/02 08:41:03;;;;;;;;;;;;;;;18.95;100.00;101861.28;5117647;28;19911;-46
2023/10/02 08:43:29;;;;;;;;;;;;;;;19.26;100.00;101856.38;5116306;28;19912;-43
2023/10/02 08:45:55;;;;;;;;;;;;;;;19.58;100.00;101847.97;5117333;28;19912;-44
2023/10/02 08:48:22;;;;;;;;;;;;;;;19.84;100.00;101853.41;5117192;28;19965;-45
2023/10/02 08:50:47;;;;;;;;;;;;;;;20.07;100.00;101858.81;5116503;28;19946;-44
2023/10/02 08:53:23;;;;;;;;;;;;;;;20.29;100.00;101858.94;5117072;28;19951;-46
2023/10/02 08:56:21;;;;;;;;;;;;;;;20.42;100.00;101857.25;5117392;28;19918;-46
2023/10/02 08:58:46;;;;;;;;;;;;;;;20.55;100.00;101850.34;5117012;28;19919;-46
2023/10/02 09:03:41;;;;;;;;;;;;;;;20.66;100.00;101853.00;5116742;28;19911;-47
2023/10/02 09:06:27;;;;;;;;;;;;;;;20.74;100.00;101840.84;5117109;28;19943;-44
2023/10/02 09:11:36;;;;;;;;;;;;;;;20.66;100.00;101848.63;5116506;28;20007;-46
2023/10/02 09:17:07;;;;;;;;;;;;;;;20.57;100.00;101846.00;5116979;28;20309;-46
2023/10/02 09:19:34;;;;;;;;;;;;;;;20.52;100.00;101852.94;5115933;28;19918;-46
2023/10/02 09:22:12;;;;;;;;;;;;;;;20.45;100.00;101851.16;5116849;28;19918;-46
2023/10/02 09:24:40;;;;;;;;;;;;;;;20.39;100.00;101852.88;5115914;28;20418;-46
2023/10/02 09:27:23;;;;;;;;;;;;;;;20.32;100.00;101851.13;5116802;28;19915;-46
2023/10/02 09:29:49;;;;;;;;;;;;;;;20.26;100.00;101843.22;5116481;28;19911;-45
2023/10/02 09:32:25;;;;;;;;;;;;;;;20.25;100.00;101843.22;5115376;28;20331;-46
2023/10/02 09:35:10;;;;;;;;;;;;;;;20.45;100.00;101843.31;5116463;28;20333;-48
2023/10/02 09:37:37;;;;;;;;;;;;;;;20.86;100.00;101845.22;5116405;28;19919;-45
2023/10/02 09:40:17;;;;;;;;;;;;;;;21.07;100.00;101840.91;5115612;28;19964;-47
2023/10/02 09:42:45;;;;;;;;;;;;;;;21.05;100.00;101838.28;5116504;28;19912;-45
2023/10/02 09:45:14;;;;;;;;;;;;;;;21.04;100.00;101845.28;5115604;28;20006;-45
2023/10/02 09:47:42;;;;;;;;;;;;;;;21.15;100.00;101844.41;5115523;28;19912;-45
2023/10/02 09:50:26;;;;;;;;;;;;;;;21.22;100.00;101848.81;5116374;28;19918;-47
2023/10/02 09:53:00;;;;;;;;;;;;;;;21.48;100.00;101840.06;5115538;28;19919;-47
2023/10/02 09:55:25;;;;;;;;;;;;;;;21.98;100.00;101844.44;5115837;28;20417;-48
2023/10/02 09:57:53;;;;;;;;;;;;;;;22.44;100.00;101842.56;5115977;28;19981;-48
2023/10/02 10:00:40;;;;;;;;;;;;;;;23.02;100.00;101839.66;5114779;28;20290;-45
2023/10/02 10:03:25;;;;;;;;;;;;;;;23.65;100.00;101846.22;5115896;28;20061;-45
2023/10/02 10:06:06;;;;;;;;;;;;;;;24.16;99.24;101839.59;5116086;28;19912;-45
2023/10/02 10:09:18;;;;;;;;;;;;;;;24.58;88.79;101853.13;5114530;28;19916;-46
2023/10/02 10:11:36;;;;;;;;;;;;;;;24.78;83.88;101855.53;5115284;28;19912;-46
2023/10/02 10:14:35;;;;;;;;;;;;;;;24.95;90.07;101836.81;5115114;28;19912;-46
2023/10/02 10:17:01;;;;;;;;;;;;;;;25.15;86.64;101846.19;5115887;28;19990;-48
2023/10/02 10:19:26;;;;;;;;;;;;;;;25.02;83.90;101836.72;5115380;28;20019;-47
2023/10/02 10:21:58;;;;;;;;;;;;;;;24.65;80.42;101832.88;5114790;28;19923;-47
2023/10/02 10:24:51;;;;;;;;;;;;;;;24.21;86.00;101827.25;5115176;28;20211;-45
2023/10/02 10:27:35;;;;;;;;;;;;;;;23.82;89.40;101826.72;5115260;28;19918;-46
2023/10/02 10:35:41;;;;;;;;;;;;;;;23.77;89.30;101820.66;5114363;28;19918;-46
2023/10/02 10:38:36;;;;;;;;;;;;;;;24.10;89.43;101821.22;5115286;28;19914;-44
2023/10/02 10:41:02;;;;;;;;;;;;;;;24.13;86.68;101821.16;5115353;28;19923;-47
2023/10/02 10:46:28;;;;;;;;;;;;;;;23.43;88.23;101811.31;5115252;28;19960;-44
2023/10/02 10:48:59;;;;;;;;;;;;;;;23.12;89.95;101810.66;5114194;28;19923;-45
2023/10/02 10:51:27;;;;;;;;;;;;;;;23.00;92.96;101801.97;5114874;28;19977;-47
2023/10/02 10:54:00;;;;;;;;;;;;;;;23.02;92.83;101810.72;5115105;28;19956;-44
2023/10/02 10:56:27;;;;;;;;;;;;;;;23.01;94.49;101808.13;5113745;28;19911;-46
2023/10/02 10:58:53;;;;;;;;;;;;;;;22.95;94.91;101809.00;5114597;28;19998;-46
2023/10/02 11:01:21;;;;;;;;;;;;;;;22.94;94.50;101811.66;5114371;28;20359;-47
2023/10/02 11:03:56;;;;;;;;;;;;;;;23.00;94.17;101809.84;5114198;28;19911;-44
2023/10/02 11:06:24;;;;;;;;;;;;;;;23.33;95.49;101799.13;5114617;28;19957;-47
2023/10/02 11:09:11;;;;;;;;;;;;;;;23.62;93.33;101801.50;5114494;28;20282;-44
2023/10/02 11:11:48;;;;;;;;;;;;;;;23.98;92.63;101795.91;5113797;28;20000;-45
2023/10/02 11:14:20;;;;;;;;;;;;;;;24.14;91.04;101799.22;5114437;28;19978;-45
2023/10/02 11:16:50;;;;;;;;;;;;;;;24.36;92.11;101793.69;5114734;28;19912;-47
2023/10/02 11:19:23;;;;;;;;;;;;;;;24.52;83.67;101794.34;5114036;28;19912;-45
2023/10/02 11:22:14;;;;;;;;;;;;;;;24.42;87.94;101794.47;5114481;28;19908;-43
2023/10/02 11:24:40;;;;;;;;;;;;;;;24.59;86.16;101785.47;5113811;28;19912;-46
2023/10/02 11:27:06;;;;;;;;;;;;;;;24.60;86.56;101782.81;5114450;28;19926;-46
2023/10/02 11:29:40;;;;;;;;;;;;;;;24.68;86.16;101784.50;5114023;28;19919;-46
2023/10/02 11:35:04;;;;;;;;;;;;;;;25.18;81.24;101774.94;5079753;28;20465;-46
2023/10/02 11:37:31;;;;;;;;;;;;;;;25.14;82.76;101779.38;5114084;28;19918;-46
2023/10/02 11:39:57;;;;;;;;;;;;;;;25.18;83.35;101774.94;5113435;28;19918;-46
2023/10/02 11:42:23;;;;;;;;;;;;;;;25.35;83.58;101771.13;5113671;28;19912;-46
2023/10/02 11:44:48;;;;;;;;;;;;;;;25.63;83.31;101769.75;5114063;28;19965;-46
2023/10/02 11:47:14;;;;;;;;;;;;;;;25.93;78.71;101770.06;5112736;28;19916;-46
2023/10/02 11:49:40;;;;;;;;;;;;;;;25.96;80.83;101763.84;5114062;28;19957;-46
2023/10/02 11:52:05;;;;;;;;;;;;;;;26.08;77.15;101768.03;5113095;28;19918;-47
2023/10/02 11:54:39;;;;;;;;;;;;;;;26.10;76.86;101760.97;5113718;28;19917;-47
2023/10/02 11:57:08;;;;;;;;;;;;;;;26.34;73.55;101756.03;5113835;28;19915;-47
2023/10/02 11:59:34;;;;;;;;;;;;;;;26.40;74.32;101750.63;5112594;28;19919;-45
2023/10/02 12:01:59;;;;;;;;;;;;;;;26.29;74.45;101749.09;5114039;28;19964;-47
2023/10/02 12:04:26;;;;;;;;;;;;;;;26.34;74.06;101745.47;5113619;28;19990;-47
2023/10/02 12:06:54;;;;;;;;;;;;;;;26.58;78.14;101751.97;5112958;28;19912;-46
2023/10/02 12:09:19;;;;;;;;;;;;;;;26.53;77.12;101749.44;5112756;28;20370;-46
2023/10/02 12:11:44;;;;;;;;;;;;;;;26.30;73.93;101747.34;5113714;28;19912;-46
2023/10/02 12:14:10;;;;;;;;;;;;;;;26.06;75.55;101746.09;5112754;28;20331;-46
2023/10/02 12:16:35;;;;;;;;;;;;;;;25.84;77.15;101738.56;5113484;28;19923;-48
2023/10/02 12:19:00;;;;;;;;;;;;;;;25.65;76.34;101738.03;5113673;28;19956;-47
2023/10/02 12:21:25;;;;;;;;;;;;;;;25.40;79.61;101740.28;5112714;28;19911;-47
2023/10/02 12:23:51;;;;;;;;;;;;;;;25.20;78.06;101741.47;5113657;28;19937;-46
2023/10/02 12:26:17;;;;;;;;;;;;;;;25.12;79.30;101735.47;5113358;28;19918;-45
2023/10/02 12:28:43;;;;;;;;;;;;;;;25.40;81.80;101732.38;5112687;28;19957;-47
2023/10/02 12:31:10;;;;;;;;;;;;;;;25.92;77.62;101731.34;5113536;28;19926;-43
2023/10/02 12:33:35;;;;;;;;;;;;;;;26.21;74.44;101729.91;5113329;28;19911;-45
2023/10/02 12:36:01;;;;;;;;;;;;;;;26.25;71.28;101728.91;5112882;28;19957;-47
2023/10/02 12:38:26;;;;;;;;;;;;;;;25.97;72.46;101712.78;5113126;28;19918;-43
2023/10/02 12:40:51;;;;;;;;;;;;;;;25.67;74.97;101719.53;5113682;28;19912;-45
2023/10/02 12:43:17;;;;;;;;;;;;;;;25.75;74.98;101712.34;5112235;28;19919;-43
2023/10/02 12:45:43;;;;;;;;;;;;;;;26.17;75.11;101711.50;5113299;28;20010;-44
2023/10/02 12:48:08;;;;;;;;;;;;;;;26.56;71.79;101715.00;5113580;28;19919;-47
2023/10/02 12:50:38;;;;;;;;;;;;;;;26.77;72.04;101710.13;5112154;28;19959;-47
2023/10/02 12:53:04;;;;;;;;;;;;;;;26.60;66.53;101703.44;5113717;28;19919;-47
2023/10/02 12:55:30;;;;;;;;;;;;;;;26.24;70.83;101703.41;5112457;28;19915;-48
2023/10/02 12:57:55;;;;;;;;;;;;;;;26.04;72.26;101690.66;5113042;28;19916;-45
2023/10/02 13:00:20;;;;;;;;;;;;;;;26.11;73.00;101692.22;5113103;28;19912;-46
2023/10/02 13:02:46;;;;;;;;;;;;;;;26.21;72.41;101684.97;5112576;28;19961;-46
2023/10/02 13:05:12;;;;;;;;;;;;;;;26.07;74.93;101687.94;5112719;28;20002;-47
2023/10/02 13:07:37;;;;;;;;;;;;;;;25.77;72.11;101679.72;5113210;28;20003;-44
2023/10/02 13:10:04;;;;;;;;;;;;;;;25.51;73.49;101682.88;5112292;28;19911;-47
2023/10/02 13:12:31;;;;;;;;;;;;;;;25.30;72.12;101678.88;5112818;28;20002;-46
2023/10/02 13:14:57;;;;;;;;;;;;;;;25.31;74.64;101675.34;5113316;28;19986;-46
2023/10/02 13:17:23;;;;;;;;;;;;;;;25.39;75.00;101677.84;5112038;28;19911;-45
2023/10/02 13:19:48;;;;;;;;;;;;;;;25.46;76.30;101679.47;5113258;28;19926;-46
2023/10/02 13:22:14;;;;;;;;;;;;;;;25.42;76.45;101683.94;5116505;28;19911;-47
2023/10/02 13:24:42;;;;;;;;;;;;;;;25.31;78.14;101675.34;5115825;28;20371;-45
2023/10/02 13:27:07;;;;;;;;;;;;;;;25.17;78.53;101672.94;5116605;28;20362;-43